• Join FlightAware (Why Join?)
  • Login
  • US Flag 
03:01AM EST


 

Airport Tracker/Info


-or-


 

Live Flight TrackerFlight Track Log ✈ SWA3924 ✈ 30-Apr-2013 ✈ KLAX - KOAK

Flight Track Log - Related Links

Times and Time Zones

All times are in EDT time to prevent confusion due to time zone crossing. See the SWA3924 flight status page for this flight to view local times or setup timezone preferences in your user account.

Time Position Orientation Groundspeed Altitude Reporting Facility
EDT Latitude Longitude Course Direction KTS MPH feet Rate Location/Type
08:39PM 33.9439 -118.4742 North 177 204 2,100  Level Los Angeles Center
08:40PM 33.9392 -118.5522 266° West 230 265 4,200 3,000 Climbing Los Angeles Center
08:41PM 33.9419 -118.6469 272° West 265 305 8,300 2,340 Climbing Los Angeles Center
08:42PM 34.0039 -118.6997 325° Northwest 275 316 9,000 300 Climbing Los Angeles Center
08:43PM 34.0828 -118.6764 14° North 292 336 9,000 780 Level Los Angeles Center
08:44PM 34.2516 -118.6000 North  Level FlightAware Approximate
08:44PM 34.1492 -118.6372 26° Northeast 293 337 10,700  Level Los Angeles Center
08:45PM 34.2339 -118.6547 350° North 313 360 13,100 2,760 Climbing Los Angeles Center
08:46PM 34.3275 -118.6883 343° North 345 397 16,500 3,060 Climbing Los Angeles Center
08:47PM 34.4269 -118.7233 344° North 369 425 19,500 3,000 Climbing Los Angeles Center
08:48PM 34.5528 -118.7692 343° North 394 453 22,700 2,640 Climbing Los Angeles Center
08:49PM 34.6608 -118.8111 342° North 405 466 25,000 2,100 Climbing Los Angeles Center
08:50PM 34.7742 -118.8514 344° North 418 481 27,100 2,100 Climbing Los Angeles Center
08:51PM 34.8747 -118.9322 327° Northwest 434 499 29,400 2,160 Climbing Los Angeles Center
08:52PM 34.9742 -119.0297 321° Northwest 426 490 31,600 1,860 Climbing Los Angeles Center
08:53PM 35.0689 -119.1217 322° Northwest 436 502 33,300 1,740 Climbing Los Angeles Center
08:54PM 35.1628 -119.2125 322° Northwest 435 501 35,200 1,260 Climbing Los Angeles Center
08:55PM 35.2569 -119.3036 322° Northwest 434 499 36,000 360 Climbing Los Angeles Center
08:56PM 35.3469 -119.3928 321° Northwest 424 488 36,000  Level Los Angeles Center
08:56PM 35.3800 -119.4256 321° Northwest 416 479 36,000  Level Oakland Center
08:57PM 35.4903 -119.5336 321° Northwest 423 487 36,000  Level Oakland Center
08:59PM 35.5814 -119.6242 321° Northwest 424 488 36,000  Level Oakland Center
09:00PM 35.6700 -119.7136 321° Northwest 418 481 36,000  Level Oakland Center
09:01PM 35.7594 -119.8033 321° Northwest 418 481 36,000  Level Oakland Center
09:02PM 35.8478 -119.8911 321° Northwest 412 474 36,000  Level Oakland Center
09:03PM 35.9367 -119.9806 321° Northwest 414 476 36,000  Level Oakland Center
09:04PM 36.0258 -120.0719 320° Northwest 418 481 36,000  Level Oakland Center
09:05PM 36.1142 -120.1625 320° Northwest 415 478 36,000  Level Oakland Center
09:06PM 36.2203 -120.2697 321° Northwest 412 474 36,000  Level Oakland Center
09:07PM 36.3083 -120.3600 320° Northwest 412 474 36,000  Level Oakland Center
09:08PM 36.3969 -120.4511 320° Northwest 415 478 36,000 -840 Level Oakland Center
09:09PM 36.4842 -120.5386 321° Northwest 406 467 34,300 -2,460 Descending Oakland Center
09:10PM 36.5739 -120.6331 320° Northwest 431 496 31,100 -3,000 Descending Oakland Center
09:11PM 36.6653 -120.7278 320° Northwest 430 495 28,200 -2,640 Descending Oakland Center
09:12PM 36.7553 -120.8233 320° Northwest 427 491 25,700 -2,640 Descending Oakland Center
09:13PM 36.8506 -120.9297 318° Northwest 403 464 22,800 -2,640 Descending Oakland Center
09:14PM 36.9319 -121.0219 318° Northwest 396 456 20,400 -2,460 Descending Oakland Center
09:15PM 37.0111 -121.1125 318° Northwest 388 447 17,900 -2,220 Descending Oakland Center
09:16PM 37.0756 -121.1881 317° Northwest 375 432 15,900 -2,220 Descending Oakland Center
09:17PM 37.1592 -121.2833 318° Northwest 356 410 13,400 -2,400 Descending Oakland Center
09:18PM 37.2308 -121.3703 316° Northwest 357 411 11,100 -1,680 Descending Oakland Center
09:19PM 37.2994 -121.4506 317° Northwest 340 391 10,100 -1,200 Descending Oakland Center
09:20PM 37.3608 -121.5208 318° Northwest 294 338 8,700 -1,380 Descending Oakland Center
09:21PM 37.4167 -121.5833 318° Northwest 288 331 7,600 -1,140 Descending Northern Cal TRACON
09:22PM 37.4667 -121.6500 313° West 272 313 6,700 -840 Descending Northern Cal TRACON
09:23PM 37.5000 -121.7333 297° West 262 302 6,000 -360 Descending Northern Cal TRACON
09:24PM 37.5167 -121.8167 284° West 241 277 6,000 -540 Level Northern Cal TRACON
09:25PM 37.5500 -121.8833 302° West 231 266 5,000 -900 Descending Northern Cal TRACON
09:26PM 37.5667 -121.9667 284° West 224 258 4,200 -840 Descending Northern Cal TRACON
09:27PM 37.6000 -122.0333 302° West 213 245 3,400 -900 Descending Northern Cal TRACON
09:28PM 37.6167 -122.1000 288° West 206 237 2,400 -1,140 Descending Northern Cal TRACON
09:28PM 37.6303 -122.1142 321° Northwest 211 243 1,900 -960 Descending Oakland Center
09:29PM 37.6608 -122.1536 314° West 174 200 1,100 -720 Descending Oakland Center
09:30PM 37.6833 -122.1869 310° West 147 169 500 9,240 Descending Oakland Center
09:31PM 37.7056 -122.2206 310° West 133 153 20,000 19,140 Climbing Oakland Center
09:33PM 37.7167 -122.2167 270° West  Level FlightAware Approximate
09:40PM 37.7213 -122.2207 270° West  Level Estimated
09:41PM 37.7167 -122.2167 270° West  Level FlightAware Approximate
09:42PM 37.7213 -122.2207 270° West  Level Estimated
09:43PM 37.7167 -122.2167 270° West  Level FlightAware Approximate
09:44PM 37.7213 -122.2207 270° West  Level Estimated
09:45PM 37.7167 -122.2167 270° West  Level FlightAware Approximate
09:46PM 37.7213 -122.2207 270° West  Level Estimated
09:47PM 37.7167 -122.2167 270° West  Level FlightAware Approximate